ELLX

Luxembourg-Findel International Airport

Luxembourg, Luxembourg
METAR ELLX 110250Z 27005KT 9999 FEW010 00/M01 Q1024 NOSIG
Observed Flight Rules
Dec-11 @ 02:50 UTC (33 minutes ago) Visual Flight Rules
Wind Visibility Clouds
270° at 5 knots 10,000+ meters
  • Few at 1,000' AGL
Temperatures Readings
Current 0°C / 32°F
Dewpoint -1°C / 30°F
Humidity 93%
Altimeter 30.24" Hg
Pressure 1024 hPa
Elevation 379
METAR ELLX 110250Z 27005KT 9999 FEW010 00/M01 Q1024 NOSIG
Observed Flight Rules
Dec-11 @ 02:50 UTC
(33 minutes ago)
VFR
Wind Visibility
270° at 5 knots 10,000+ meters
Clouds
  • Few at 1,000' AGL
Temperature Dewpoint
0°C / 32°F -1°C / 30°F
Humidity Altimeter Pressure
93% 30.24" Hg 1024 hPa